Thursday, February 22, 2018, 12:04 PM EST
Back to Local

KJFK, Kennedy International Airport

Location: Rosedale, NY, United States Lat: 40.633
Local Time: 12:04 PM EST (17:04 GMT) Lon: -73.767
Time Zone: US/Eastern Elev: 13 ft

Show me the last for .
Show Decoded

2018-02-22 11:51 METAR KJFK 221651Z 05014KT 10SM -RA FEW030 OVC048 07/00 A3059 RMK AO2 PK WND
                 04026/1624 RAB40 SLP358 P0000 T00670000 =
2018-02-22 10:51 METAR KJFK 221551Z 06019G24KT 10SM FEW031 OVC050 07/01 A3060 RMK AO2 RAB17E32
                 SLP362 P0000 T00720006 =
2018-02-22 10:19 METAR KJFK 221519Z 04013G22KT 10SM -RA SCT033 OVC055 07/02 A3062 RMK AO2 RAB17
                 P0000 T00720022 =
2018-02-22 09:51 METAR KJFK 221451Z 03012KT 10SM BKN028 OVC055 08/02 A3061 RMK AO2 RAB15E33
                 PRESRR SLP364 P0000 60000 T00780022 51026 =
2018-02-22 08:51 METAR KJFK 221351Z 03016G22KT 10SM OVC026 08/03 A3058 RMK AO2 SLP353 T00780028 =
2018-02-22 08:16 METAR KJFK 221316Z 01016KT 10SM BKN024 OVC050 08/03 A3057 RMK AO2 T00780033 =
2018-02-22 07:51 METAR KJFK 221251Z 01015KT 10SM SCT024 BKN032 OVC050 08/03 A3057 RMK AO2 SLP350
                 T00780028 =
2018-02-22 06:51 METAR KJFK 221151Z 02013KT 10SM OVC055 08/02 A3053 RMK AO2 SLP338 70003
                 T00780022 10139 20078 50010 =
2018-02-22 05:51 METAR KJFK 221051Z 02010KT 10SM OVC049 09/02 A3054 RMK AO2 SLP341 T00890022 =
2018-02-22 04:51 METAR KJFK 220951Z 01012KT 10SM OVC049 09/02 A3053 RMK AO2 SLP338 T00940022 =
2018-02-22 03:51 METAR KJFK 220851Z 01012KT 10SM OVC049 11/04 A3050 RMK AO2 SLP328 T01060039
                 51026 =
2018-02-22 02:51 METAR KJFK 220751Z 03012KT 10SM OVC045 12/03 A3048 RMK AO2 SLP321 T01170028 =
2018-02-22 01:51 METAR KJFK 220651Z 01012KT 10SM OVC041 13/01 A3045 RMK AO2 SLP312 T01330011 =
2018-02-22 00:51 METAR KJFK 220551Z 01009KT 10SM OVC039 14/09 A3042 RMK AO2 RAB07E37 SLP302 P0000
                 60003 T01390089 10183 20111 53019 =
2018-02-21 23:51 METAR KJFK 220451Z 02010KT 10SM OVC037 15/10 A3040 RMK AO2 SLP295 T01500100
                 401830067 =
2018-02-21 22:51 METAR KJFK 220351Z 01010KT 10SM OVC033 16/13 A3037 RMK AO2 RAE28 SLP283 P0003
                 T01560133 =
2018-02-21 21:51 METAR KJFK 220251Z 35012KT 8SM -RA OVC033 17/14 A3037 RMK AO2 RAB42 SLP282 P0000
                 60000 T01670139 53033 =
2018-02-21 20:51 METAR KJFK 220151Z 33011KT 10SM BKN037 BKN060 18/13 A3033 RMK AO2 SLP271
                 T01780133 =
2018-02-21 19:51 METAR KJFK 220051Z 00000KT 10SM SCT080 SCT130 12/10 A3029 RMK AO2 SLP257
                 T01170100 =
2018-02-21 18:51 METAR KJFK 212351Z 15004KT 10SM FEW100 12/10 A3027 RMK AO2 SLP250 T01170100
                 10183 20117 53016 =
2018-02-21 17:51 METAR KJFK 212251Z 18005KT 10SM FEW080 FEW260 12/09 A3025 RMK AO2 SLP243
                 T01170094 =
2018-02-21 16:51 METAR KJFK 212151Z 17008KT 10SM FEW045 FEW260 14/11 A3023 RMK AO2 SLP236
                 T01440106 =
2018-02-21 15:51 METAR KJFK 212051Z 18008KT 10SM FEW038 FEW070 FEW270 16/11 A3022 RMK AO2 SLP234
                 T01610111 55010 =
2018-02-21 14:51 METAR KJFK 211951Z 19007KT 10SM FEW033 FEW070 FEW270 18/12 A3022 RMK AO2 SLP233
                 T01780122 =
2018-02-21 13:51 METAR KJFK 211851Z 18010KT 10SM FEW070 FEW350 17/12 A3022 RMK AO2 SLP234
                 T01670122 =
2018-02-21 12:51 METAR KJFK 211751Z 19010KT 10SM FEW025 FEW070 FEW350 15/11 A3025 RMK AO2 SLP244
                 T01500111 10161 20072 58021 =

Support USWX by starting your Amazon purchase here.